Time;durP1;ratioP1;P1;durP2;ratioP2;P2;SDS_P1;SDS_P2;PMS_P1;PMS_P2;Temp;Humidity;BMP_temperature;BMP_pressure;BME280_temperature;BME280_humidity;BME280_pressure;Samples;Min_cycle;Max_cycle;Signal;HPM_P1;HPM_P2
2022/01/21 00:01:25;;;;;;;5.95;1.88;;;7.80;68.30;;;;;;4993986;28;20093;-72
2022/01/21 00:03:52;;;;;;;4.25;1.70;;;7.80;68.60;;;;;;4994969;28;20026;-72
2022/01/21 00:06:17;;;;;;;3.25;1.50;;;7.80;68.50;;;;;;4995442;28;20049;-73
2022/01/21 00:08:45;;;;;;;5.88;1.88;;;7.80;68.30;;;;;;4997799;28;20488;-72
2022/01/21 00:11:12;;;;;;;3.63;1.60;;;7.80;68.50;;;;;;4997592;28;20050;-73
2022/01/21 00:13:39;;;;;;;4.75;1.67;;;7.80;68.60;;;;;;4997702;28;20038;-72
2022/01/21 00:16:05;;;;;;;3.60;1.60;;;7.80;68.70;;;;;;4997782;28;20505;-73
2022/01/21 00:18:33;;;;;;;4.57;1.58;;;7.80;68.40;;;;;;4994840;28;20038;-72
2022/01/21 00:31:56;;;;;;;3.30;1.45;;;7.70;68.50;;;;;;4998876;28;20535;-72
2022/01/21 00:34:22;;;;;;;4.55;1.63;;;7.70;68.70;;;;;;5009948;28;20034;-74
2022/01/21 00:36:47;;;;;;;6.05;1.70;;;7.70;68.30;;;;;;4995074;28;20077;-73
2022/01/21 00:39:13;;;;;;;3.55;1.45;;;7.70;68.40;;;;;;5003803;28;20033;-73
2022/01/21 00:41:55;;;;;;;3.72;1.60;;;7.60;68.40;;;;;;4999987;28;20027;-73
2022/01/21 00:44:20;;;;;;;3.78;1.25;;;7.60;68.60;;;;;;4998505;28;20022;-73
2022/01/21 00:46:46;;;;;;;4.28;1.63;;;7.50;68.30;;;;;;4999180;28;20030;-73
2022/01/21 00:49:12;;;;;;;4.85;1.63;;;7.50;68.70;;;;;;4996768;28;20049;-73
2022/01/21 00:51:37;;;;;;;5.38;1.60;;;7.50;68.80;;;;;;4997781;28;20038;-73
2022/01/21 00:54:03;;;;;;;2.80;1.60;;;7.50;68.70;;;;;;4999610;28;20042;-72
2022/01/21 00:56:28;;;;;;;3.38;1.40;;;7.50;68.70;;;;;;4997079;28;20026;-72
2022/01/21 00:58:54;;;;;;;2.92;1.50;;;7.50;68.70;;;;;;4996618;28;20122;-72
2022/01/21 01:01:20;;;;;;;4.65;1.60;;;7.40;68.80;;;;;;4996610;28;20096;-72
2022/01/21 01:03:45;;;;;;;4.25;1.85;;;7.50;69.00;;;;;;4994925;28;20496;-72
2022/01/21 01:06:11;;;;;;;2.47;1.50;;;7.40;68.90;;;;;;4996294;28;20037;-72
2022/01/21 01:08:37;;;;;;;3.13;1.20;;;7.40;68.50;;;;;;4998869;28;20054;-72
2022/01/21 01:21:42;;;;;;;6.20;1.70;;;7.30;69.00;;;;;;5010199;28;20036;-73
2022/01/21 01:29:19;;;;;;;3.33;1.48;;;7.10;68.90;;;;;;4996450;28;20041;-72
2022/01/21 01:31:45;;;;;;;4.43;1.60;;;7.20;69.40;;;;;;4996082;28;20488;-73
2022/01/21 01:34:11;;;;;;;6.82;1.77;;;7.20;69.40;;;;;;4995058;28;20037;-73
2022/01/21 01:36:39;;;;;;;3.75;1.90;;;7.10;69.40;;;;;;4993612;28;20050;-72
2022/01/21 01:39:18;;;;;;;3.22;1.67;;;7.20;69.50;;;;;;5002663;28;20029;-73
2022/01/21 01:49:38;;;;;;;3.85;1.70;;;7.20;69.70;;;;;;4996028;28;20567;-73
2022/01/21 01:52:11;;;;;;;5.95;1.58;;;7.10;69.50;;;;;;4995301;28;20097;-73
2022/01/21 01:54:42;;;;;;;6.88;1.80;;;7.20;69.90;;;;;;5009318;28;20034;-73
2022/01/21 01:57:08;;;;;;;4.60;1.75;;;7.20;69.50;;;;;;4995220;28;20046;-73
2022/01/21 01:59:34;;;;;;;3.22;1.65;;;7.20;69.70;;;;;;4995466;28;20026;-73
2022/01/21 02:02:12;;;;;;;3.95;1.67;;;7.30;69.80;;;;;;4995742;28;20089;-73
2022/01/21 02:04:39;;;;;;;4.32;1.40;;;7.30;69.70;;;;;;4994036;28;20547;-73
2022/01/21 02:07:05;;;;;;;3.47;1.90;;;7.30;70.70;;;;;;5011000;28;20096;-73
2022/01/21 02:09:31;;;;;;;5.10;1.60;;;7.30;69.40;;;;;;4993125;28;20378;-73
2022/01/21 02:11:57;;;;;;;4.72;1.55;;;7.30;69.40;;;;;;4995705;28;20519;-72
2022/01/21 02:14:31;;;;;;;3.72;1.45;;;7.30;69.40;;;;;;4995006;28;20046;-73
2022/01/21 02:22:25;;;;;;;4.90;1.88;;;7.30;69.40;;;;;;4995365;28;20024;-73
2022/01/21 02:24:54;;;;;;;4.97;1.50;;;7.30;69.40;;;;;;4993356;28;20042;-73
2022/01/21 02:27:21;;;;;;;2.85;1.40;;;7.30;69.40;;;;;;4993729;28;20044;-72
2022/01/21 02:30:01;;;;;;;4.32;1.55;;;7.30;69.60;;;;;;4994972;28;20026;-73
2022/01/21 02:32:27;;;;;;;4.50;1.77;;;7.30;69.40;;;;;;4996497;28;20416;-73
2022/01/21 02:34:53;;;;;;;4.70;1.70;;;7.40;69.70;;;;;;4998692;28;20026;-73
2022/01/21 02:37:22;;;;;;;4.32;1.88;;;7.30;69.30;;;;;;5008542;28;20034;-72
2022/01/21 02:39:48;;;;;;;3.08;1.60;;;7.30;69.40;;;;;;5004188;28;20026;-73
2022/01/21 02:42:14;;;;;;;5.80;1.90;;;7.30;69.60;;;;;;4997095;28;20031;-73
2022/01/21 02:44:40;;;;;;;3.95;1.60;;;7.30;69.80;;;;;;5001672;28;20026;-72
2022/01/21 02:47:07;;;;;;;4.18;1.67;;;7.40;69.50;;;;;;5002130;28;20033;-74
2022/01/21 02:49:34;;;;;;;3.97;1.83;;;7.40;69.80;;;;;;4995186;28;20027;-73
2022/01/21 02:52:02;;;;;;;4.88;1.88;;;7.40;69.70;;;;;;5008406;28;20026;-73
2022/01/21 02:54:33;;;;;;;2.72;1.55;;;7.40;69.60;;;;;;4995655;28;20035;-74
2022/01/21 02:57:00;;;;;;;3.38;1.50;;;7.40;69.30;;;;;;4997163;28;20034;-71
2022/01/21 02:59:26;;;;;;;4.00;1.70;;;7.40;69.50;;;;;;4997645;28;20109;-72
2022/01/21 03:01:52;;;;;;;2.92;1.50;;;7.40;70.20;;;;;;4997750;28;20022;-73
2022/01/21 03:04:33;;;;;;;2.88;1.50;;;7.30;69.20;;;;;;4995291;28;20030;-72
2022/01/21 03:06:59;;;;;;;3.42;1.73;;;7.20;69.50;;;;;;4993639;28;20450;-73
2022/01/21 03:09:24;;;;;;;3.83;1.70;;;7.30;69.40;;;;;;4996713;28;20046;-72
2022/01/21 03:11:50;;;;;;;5.05;1.95;;;7.20;69.80;;;;;;4997400;28;20031;-72
2022/01/21 03:14:16;;;;;;;5.80;1.90;;;7.20;69.60;;;;;;4997372;28;20404;-73
2022/01/21 03:16:41;;;;;;;4.40;1.58;;;7.20;69.50;;;;;;4997528;28;20049;-73
2022/01/21 03:19:07;;;;;;;4.22;1.90;;;7.20;69.70;;;;;;4993709;28;20033;-73
2022/01/21 03:21:33;;;;;;;3.97;1.73;;;7.20;70.70;;;;;;4996018;28;20031;-72
2022/01/21 03:23:59;;;;;;;2.80;1.50;;;7.10;69.70;;;;;;4996914;28;20030;-72
2022/01/21 03:26:27;;;;;;;5.65;1.80;;;7.10;69.60;;;;;;4996908;28;20037;-73
2022/01/21 03:28:55;;;;;;;3.63;1.52;;;7.10;69.70;;;;;;4997285;28;20057;-73
2022/01/21 03:31:21;;;;;;;4.47;1.92;;;7.00;69.50;;;;;;4995512;28;20084;-72
2022/01/21 03:33:47;;;;;;;5.22;1.60;;;7.00;69.80;;;;;;4995289;28;20026;-73
2022/01/21 03:36:13;;;;;;;3.90;1.50;;;7.00;69.80;;;;;;4996038;28;20054;-73
2022/01/21 03:38:39;;;;;;;3.10;1.63;;;7.00;70.10;;;;;;5000579;28;20428;-73
2022/01/21 03:41:06;;;;;;;2.97;1.63;;;6.90;69.70;;;;;;5000609;28;20377;-72
2022/01/21 03:43:32;;;;;;;2.60;1.50;;;7.00;70.20;;;;;;5000119;28;20022;-73
2022/01/21 03:45:59;;;;;;;4.07;1.65;;;6.90;70.00;;;;;;4996575;28;20030;-72
2022/01/21 03:48:25;;;;;;;3.88;1.52;;;6.90;69.90;;;;;;5000059;28;20058;-73
2022/01/21 03:50:51;;;;;;;3.38;1.50;;;7.00;70.50;;;;;;4998098;28;20471;-73
2022/01/21 03:53:17;;;;;;;2.42;1.40;;;7.00;70.30;;;;;;4997822;28;20060;-72
2022/01/21 03:55:43;;;;;;;2.40;1.23;;;6.90;70.00;;;;;;4997791;28;20031;-72
2022/01/21 03:58:10;;;;;;;3.17;1.55;;;6.90;70.10;;;;;;4998034;28;20034;-72
2022/01/21 04:00:39;;;;;;;4.43;1.60;;;6.90;69.90;;;;;;4995759;28;20508;-72
2022/01/21 04:03:05;;;;;;;3.75;1.60;;;6.80;70.10;;;;;;5000687;28;20026;-72
2022/01/21 04:05:31;;;;;;;4.40;1.67;;;6.80;70.10;;;;;;5000349;28;20390;-72
2022/01/21 04:07:57;;;;;;;4.70;1.52;;;6.80;70.20;;;;;;5000641;28;20031;-72
2022/01/21 04:10:23;;;;;;;5.75;1.40;;;6.80;70.20;;;;;;4998388;28;20041;-72
2022/01/21 04:12:50;;;;;;;5.05;1.65;;;6.80;70.10;;;;;;4996524;28;20033;-72
2022/01/21 04:15:16;;;;;;;4.00;1.40;;;6.80;70.00;;;;;;4998158;28;20121;-72
2022/01/21 04:17:42;;;;;;;3.33;1.23;;;6.80;70.20;;;;;;5000528;28;20504;-73
2022/01/21 04:20:10;;;;;;;3.55;1.50;;;6.80;70.60;;;;;;5000043;28;20014;-72
2022/01/21 04:22:36;;;;;;;3.60;1.27;;;6.80;70.20;;;;;;5000326;28;20033;-72
2022/01/21 04:25:02;;;;;;;2.83;1.27;;;6.80;70.40;;;;;;4995799;28;20471;-73
2022/01/21 04:27:28;;;;;;;5.35;1.40;;;6.70;70.20;;;;;;4999327;28;20057;-72
2022/01/21 04:29:54;;;;;;;3.38;1.25;;;6.70;70.20;;;;;;4997372;28;20058;-73
2022/01/21 04:32:19;;;;;;;3.78;1.38;;;6.70;70.40;;;;;;4997267;28;20579;-73
2022/01/21 04:34:45;;;;;;;3.83;1.40;;;6.80;70.40;;;;;;4996887;28;20030;-71
2022/01/21 04:37:12;;;;;;;2.85;1.33;;;6.80;70.80;;;;;;4997082;28;20025;-73
2022/01/21 04:39:55;;;;;;;3.40;1.40;;;6.80;70.10;;;;;;5004613;28;20030;-73
2022/01/21 04:47:39;;;;;;;3.42;1.60;;;6.70;70.50;;;;;;4997353;28;20041;-73
2022/01/21 04:50:10;;;;;;;3.67;1.55;;;6.60;70.30;;;;;;4996693;28;20366;-73
2022/01/21 04:52:36;;;;;;;3.05;1.30;;;6.60;70.60;;;;;;4997211;28;20030;-71
2022/01/21 04:55:02;;;;;;;4.30;1.50;;;6.60;70.50;;;;;;5010059;28;20497;-72
2022/01/21 04:57:29;;;;;;;3.08;1.15;;;6.60;70.70;;;;;;4998611;28;20037;-72
2022/01/21 04:59:55;;;;;;;2.88;1.50;;;6.60;70.20;;;;;;4999690;28;20089;-72
2022/01/21 05:02:20;;;;;;;2.47;1.30;;;6.60;70.70;;;;;;4999645;28;20436;-72
2022/01/21 05:04:46;;;;;;;3.70;1.40;;;6.60;70.60;;;;;;4999430;28;20033;-71
2022/01/21 05:07:14;;;;;;;4.32;1.58;;;6.60;70.50;;;;;;4996358;28;20029;-72
2022/01/21 05:09:40;;;;;;;5.25;1.48;;;6.60;70.60;;;;;;4996792;28;20522;-73
2022/01/21 05:12:09;;;;;;;3.83;1.33;;;6.60;70.50;;;;;;4996074;28;20105;-73
2022/01/21 05:15:04;;;;;;;3.55;1.40;;;6.50;70.70;;;;;;4996621;28;20030;-72
2022/01/21 05:17:30;;;;;;;3.00;1.23;;;6.50;70.70;;;;;;4996579;28;20049;-73
2022/01/21 05:19:56;;;;;;;4.38;1.33;;;6.50;70.70;;;;;;4996528;28;20023;-73
2022/01/21 05:22:22;;;;;;;3.03;1.10;;;6.50;70.70;;;;;;4996374;28;20025;-73
2022/01/21 05:24:49;;;;;;;3.55;1.50;;;6.50;70.80;;;;;;4994472;28;20053;-73
2022/01/21 05:27:15;;;;;;;3.13;1.45;;;6.50;70.80;;;;;;4999225;28;20025;-73
2022/01/21 05:29:41;;;;;;;3.67;1.40;;;6.50;71.00;;;;;;4998922;28;20125;-73
2022/01/21 05:32:07;;;;;;;4.88;1.50;;;6.50;70.90;;;;;;4999043;28;20130;-73
2022/01/21 05:34:34;;;;;;;3.80;1.30;;;6.50;70.70;;;;;;4998824;28;20072;-73
2022/01/21 05:36:59;;;;;;;3.28;1.50;;;6.50;70.60;;;;;;4994453;28;20509;-73
2022/01/21 05:39:25;;;;;;;4.45;1.55;;;6.50;70.90;;;;;;4997798;28;20056;-73
2022/01/21 05:41:52;;;;;;;2.88;1.70;;;6.50;70.80;;;;;;4998827;28;20034;-73
2022/01/21 05:47:00;;;;;;;4.45;1.38;;;6.40;70.90;;;;;;4996088;28;20030;-73
2022/01/21 05:49:28;;;;;;;3.60;1.75;;;6.50;71.10;;;;;;4994667;28;20044;-72
2022/01/21 05:52:04;;;;;;;5.00;1.55;;;6.50;71.20;;;;;;4994231;28;20065;-73
2022/01/21 05:54:30;;;;;;;3.05;1.25;;;6.40;70.80;;;;;;4993455;28;20030;-73
2022/01/21 05:56:56;;;;;;;4.60;1.60;;;6.40;71.00;;;;;;4995613;28;20057;-73
2022/01/21 05:59:22;;;;;;;4.30;1.58;;;6.50;71.20;;;;;;4995480;28;20037;-72
2022/01/21 06:01:48;;;;;;;4.07;1.77;;;6.50;71.40;;;;;;4995166;28;20026;-73
2022/01/21 06:04:14;;;;;;;4.10;1.60;;;6.50;71.30;;;;;;4995767;28;20096;-73
2022/01/21 06:06:40;;;;;;;3.40;1.58;;;6.50;70.70;;;;;;4993397;28;20101;-73
2022/01/21 06:09:07;;;;;;;2.90;1.40;;;6.40;70.70;;;;;;4994916;28;20026;-73
2022/01/21 06:11:33;;;;;;;3.90;1.38;;;6.40;70.90;;;;;;4995516;28;20037;-73
2022/01/21 06:14:00;;;;;;;3.42;1.35;;;6.40;71.20;;;;;;5002125;28;20022;-73
2022/01/21 06:16:26;;;;;;;3.75;1.40;;;6.40;71.00;;;;;;5001018;28;20029;-73
2022/01/21 06:18:52;;;;;;;4.55;1.50;;;6.40;71.10;;;;;;4995277;28;20038;-73
2022/01/21 06:21:18;;;;;;;5.43;1.60;;;6.30;71.30;;;;;;4997045;28;20101;-73
2022/01/21 06:23:43;;;;;;;3.40;1.38;;;6.40;71.30;;;;;;4998204;28;20033;-73
2022/01/21 06:26:09;;;;;;;3.88;1.52;;;6.30;71.10;;;;;;4995218;28;20073;-73
2022/01/21 06:28:35;;;;;;;4.63;1.50;;;6.30;71.30;;;;;;4994131;28;20058;-72
2022/01/21 06:31:01;;;;;;;4.95;1.55;;;6.30;71.20;;;;;;4994989;28;20042;-73
2022/01/21 06:33:27;;;;;;;2.65;1.45;;;6.30;71.20;;;;;;4993191;28;20077;-73
2022/01/21 06:35:53;;;;;;;5.47;1.60;;;6.30;71.40;;;;;;4993757;28;20096;-73
2022/01/21 06:38:20;;;;;;;3.72;1.50;;;6.30;71.20;;;;;;4995963;28;20097;-73
2022/01/21 06:40:47;;;;;;;4.43;1.67;;;6.30;70.90;;;;;;5004813;28;20444;-73
2022/01/21 06:43:14;;;;;;;2.97;1.77;;;6.20;71.20;;;;;;4995227;28;20030;-73
2022/01/21 06:45:40;;;;;;;4.05;1.52;;;6.30;71.50;;;;;;4992915;28;20022;-73
2022/01/21 06:48:06;;;;;;;4.95;1.73;;;6.20;71.30;;;;;;4994503;28;20037;-73
2022/01/21 06:50:33;;;;;;;4.80;1.50;;;6.20;71.60;;;;;;4994918;28;20057;-73
2022/01/21 06:52:59;;;;;;;2.90;1.55;;;6.20;71.50;;;;;;4995038;28;20027;-73
2022/01/21 06:55:25;;;;;;;4.05;1.60;;;6.20;71.60;;;;;;4994929;28;20113;-73
2022/01/21 06:57:51;;;;;;;5.68;1.83;;;6.20;71.60;;;;;;4993222;28;20034;-73
2022/01/21 07:00:19;;;;;;;3.63;1.70;;;6.10;71.50;;;;;;4994325;28;20109;-73
2022/01/21 07:02:49;;;;;;;3.65;1.77;;;6.20;71.70;;;;;;4995035;28;20026;-73
2022/01/21 07:05:16;;;;;;;3.90;1.70;;;6.10;71.50;;;;;;4994561;28;20432;-73
2022/01/21 07:07:41;;;;;;;3.90;1.88;;;6.10;71.80;;;;;;4993614;28;20399;-73
2022/01/21 07:10:11;;;;;;;4.15;1.60;;;6.10;71.90;;;;;;4995109;28;20030;-73
2022/01/21 07:12:37;;;;;;;3.28;1.70;;;6.10;71.80;;;;;;4994857;28;20022;-73
2022/01/21 07:15:04;;;;;;;2.60;1.42;;;6.10;71.60;;;;;;5001392;28;20026;-73
2022/01/21 07:17:29;;;;;;;3.92;1.50;;;6.00;71.80;;;;;;5001593;28;20534;-73
2022/01/21 07:19:55;;;;;;;2.90;1.52;;;6.10;71.90;;;;;;5001424;28;20116;-73
2022/01/21 07:22:21;;;;;;;3.63;2.03;;;6.10;72.10;;;;;;4999400;28;20102;-73
2022/01/21 07:24:47;;;;;;;4.75;1.77;;;6.10;72.10;;;;;;4998786;28;20134;-73
2022/01/21 07:27:12;;;;;;;4.88;1.67;;;6.10;72.10;;;;;;5000521;28;20109;-73
2022/01/21 07:29:38;;;;;;;5.85;1.80;;;6.00;72.00;;;;;;5001420;28;20042;-73
2022/01/21 07:32:04;;;;;;;4.32;1.70;;;6.00;72.20;;;;;;5001255;28;20034;-73
2022/01/21 07:34:29;;;;;;;3.45;1.80;;;6.00;72.50;;;;;;4999613;28;20029;-73
2022/01/21 07:36:55;;;;;;;3.25;1.60;;;6.10;72.30;;;;;;4997787;28;20058;-72
2022/01/21 07:39:22;;;;;;;4.45;1.55;;;6.00;72.20;;;;;;5000155;28;20540;-72
2022/01/21 07:41:48;;;;;;;4.25;1.80;;;6.10;72.50;;;;;;5004956;28;20030;-72
2022/01/21 07:44:15;;;;;;;3.28;1.52;;;6.00;72.00;;;;;;5007561;28;20080;-73
2022/01/21 07:46:43;;;;;;;4.70;1.83;;;6.10;72.30;;;;;;4998538;28;20061;-73
2022/01/21 07:49:09;;;;;;;4.53;1.70;;;6.00;72.20;;;;;;4998011;28;20030;-73
2022/01/21 07:51:35;;;;;;;3.67;1.98;;;6.00;72.00;;;;;;4995900;28;20030;-73
2022/01/21 07:54:02;;;;;;;6.20;1.70;;;5.90;72.30;;;;;;5009355;28;20145;-74
2022/01/21 07:56:28;;;;;;;3.33;1.70;;;5.90;72.00;;;;;;5001784;28;20038;-74
2022/01/21 07:58:54;;;;;;;2.78;1.80;;;6.00;72.70;;;;;;4997767;28;20045;-74
2022/01/21 08:01:20;;;;;;;3.90;1.80;;;5.90;73.10;;;;;;4998241;28;20446;-73
2022/01/21 08:03:46;;;;;;;5.78;1.90;;;6.00;72.30;;;;;;4995872;28;20600;-74
2022/01/21 08:06:11;;;;;;;3.70;1.63;;;5.90;72.30;;;;;;4997425;28;20504;-73
2022/01/21 08:08:37;;;;;;;4.05;1.83;;;6.00;72.60;;;;;;4997981;28;20108;-72
2022/01/21 08:11:03;;;;;;;3.42;1.75;;;6.00;72.80;;;;;;5000791;28;20104;-74
2022/01/21 08:13:28;;;;;;;5.65;1.75;;;6.20;72.90;;;;;;5011475;28;20068;-73
2022/01/21 08:15:55;;;;;;;4.40;1.80;;;6.30;72.40;;;;;;5012863;28;20034;-75
2022/01/21 08:18:21;;;;;;;2.85;1.40;;;6.40;72.70;;;;;;4996158;28;20049;-74
2022/01/21 08:20:47;;;;;;;4.28;1.80;;;6.60;72.50;;;;;;4997709;28;20408;-73
2022/01/21 08:23:12;;;;;;;2.85;1.60;;;6.80;72.50;;;;;;4996689;28;20504;-73
2022/01/21 08:25:39;;;;;;;4.78;1.67;;;7.00;72.00;;;;;;4997586;28;20101;-73
2022/01/21 08:28:05;;;;;;;4.15;1.60;;;7.10;72.00;;;;;;4997835;28;20026;-74
2022/01/21 08:30:31;;;;;;;4.72;1.90;;;7.40;72.10;;;;;;5007733;28;20076;-74
2022/01/21 08:32:57;;;;;;;5.20;1.90;;;7.70;72.00;;;;;;5007758;28;20065;-73
2022/01/21 08:35:23;;;;;;;5.35;2.10;;;7.90;71.50;;;;;;5005589;28;20038;-74
2022/01/21 08:37:52;;;;;;;5.00;2.08;;;8.30;70.90;;;;;;5009250;28;20104;-73
2022/01/21 08:40:18;;;;;;;4.25;2.03;;;8.50;70.50;;;;;;5012318;28;20026;-73
2022/01/21 08:42:44;;;;;;;5.63;2.30;;;8.80;69.70;;;;;;5003380;28;20030;-73
2022/01/21 08:45:11;;;;;;;7.03;2.22;;;9.00;69.10;;;;;;5005456;28;20028;-73
2022/01/21 08:47:40;;;;;;;5.40;2.40;;;9.20;68.70;;;;;;5004265;28;20126;-72
2022/01/21 08:50:09;;;;;;;4.43;2.20;;;9.40;68.30;;;;;;5004664;28;20057;-72
2022/01/21 08:52:40;;;;;;;6.72;2.22;;;9.70;67.80;;;;;;5011938;28;20060;-74
2022/01/21 08:55:10;;;;;;;6.50;2.15;;;10.10;66.90;;;;;;5002359;28;20026;-73
2022/01/21 08:57:39;;;;;;;5.32;2.40;;;10.30;66.00;;;;;;5007840;28;20025;-74
2022/01/21 09:00:08;;;;;;;5.38;2.10;;;10.60;64.80;;;;;;5006302;28;20083;-73
2022/01/21 09:02:34;;;;;;;4.30;2.05;;;10.90;65.50;;;;;;5014024;28;20053;-76
2022/01/21 09:04:59;;;;;;;6.80;2.25;;;11.10;63.60;;;;;;5009731;28;20065;-72
2022/01/21 09:07:25;;;;;;;6.28;2.03;;;11.10;62.40;;;;;;4997747;28;20501;-74
2022/01/21 09:09:50;;;;;;;6.88;2.15;;;11.20;62.50;;;;;;5009133;28;20014;-71
2022/01/21 09:12:16;;;;;;;5.15;2.10;;;11.40;62.60;;;;;;5011717;28;20092;-73
2022/01/21 09:14:42;;;;;;;4.93;2.13;;;11.30;61.90;;;;;;5003157;28;20448;-69
2022/01/21 09:17:07;;;;;;;5.45;2.10;;;11.40;61.80;;;;;;5001304;28;20492;-69
2022/01/21 09:19:33;;;;;;;5.47;2.33;;;11.40;61.70;;;;;;4997077;28;20038;-69
2022/01/21 09:22:02;;;;;;;5.65;2.40;;;11.40;62.10;;;;;;5011648;28;20026;-68
2022/01/21 09:24:32;;;;;;;4.75;1.98;;;11.50;61.50;;;;;;4996143;28;20027;-69
2022/01/21 09:27:02;;;;;;;4.90;2.20;;;11.70;62.60;;;;;;5006072;28;20607;-68
2022/01/21 09:29:28;;;;;;;7.22;2.40;;;11.90;61.70;;;;;;5003654;28;20091;-66
2022/01/21 09:31:54;;;;;;;8.85;2.33;;;12.00;60.90;;;;;;5008259;28;20034;-73
2022/01/21 09:34:20;;;;;;;5.07;2.47;;;12.10;60.20;;;;;;5009897;28;20034;-73
2022/01/21 09:36:46;;;;;;;5.95;2.05;;;12.20;61.00;;;;;;5008151;28;20520;-72
2022/01/21 09:39:12;;;;;;;6.35;2.25;;;12.40;60.00;;;;;;4998545;28;20034;-69
2022/01/21 09:41:42;;;;;;;5.82;2.30;;;12.40;60.00;;;;;;4999406;28;20033;-68
2022/01/21 09:44:12;;;;;;;6.63;2.13;;;12.60;59.80;;;;;;4997114;28;20025;-68
2022/01/21 09:46:42;;;;;;;6.25;2.42;;;12.70;59.60;;;;;;4996341;28;20027;-69
2022/01/21 09:49:25;;;;;;;5.55;2.15;;;13.00;60.80;;;;;;5011607;28;20060;-68
2022/01/21 09:52:07;;;;;;;6.40;1.88;;;13.20;59.10;;;;;;4996521;28;20097;-68
2022/01/21 09:54:43;;;;;;;8.98;2.03;;;13.10;58.30;;;;;;5008157;28;20567;-68
2022/01/21 09:57:09;;;;;;;6.57;2.33;;;13.00;58.50;;;;;;4999052;28;20404;-69
2022/01/21 09:59:37;;;;;;;3.78;1.65;;;12.90;58.20;;;;;;5001755;28;20500;-69
2022/01/21 10:02:08;;;;;;;4.47;1.75;;;12.80;58.50;;;;;;5007986;28;20061;-71
2022/01/21 10:04:37;;;;;;;4.28;2.08;;;12.70;59.10;;;;;;4995743;28;20480;-71
2022/01/21 10:07:04;;;;;;;5.60;1.85;;;12.50;58.50;;;;;;4995939;28;20034;-70
2022/01/21 10:09:30;;;;;;;6.45;1.67;;;12.20;58.80;;;;;;5009473;28;20435;-67
2022/01/21 10:12:01;;;;;;;5.93;1.63;;;12.00;59.60;;;;;;5006661;28;20029;-67
2022/01/21 10:14:29;;;;;;;4.00;1.63;;;11.80;59.80;;;;;;5006570;28;20030;-67
2022/01/21 10:16:56;;;;;;;5.97;1.95;;;11.50;60.30;;;;;;5017792;28;20069;-68
2022/01/21 10:19:36;;;;;;;4.85;1.40;;;11.40;61.20;;;;;;5017497;28;20508;-68
2022/01/21 10:22:28;;;;;;;5.20;1.70;;;11.50;62.00;;;;;;5018861;28;20112;-68
2022/01/21 10:24:58;;;;;;;4.40;1.73;;;11.60;62.80;;;;;;5015420;28;20451;-65
2022/01/21 10:27:35;;;;;;;6.03;1.75;;;12.20;63.10;;;;;;5020707;28;20163;-65
2022/01/21 10:30:02;;;;;;;4.30;1.70;;;12.80;62.20;;;;;;5018594;28;20048;-65
2022/01/21 10:32:42;;;;;;;5.95;1.77;;;13.10;60.60;;;;;;5006574;28;20408;-65
2022/01/21 10:35:32;;;;;;;4.32;1.35;;;13.30;60.70;;;;;;4996796;28;20050;-65
2022/01/21 10:38:16;;;;;;;6.30;1.33;;;13.40;58.00;;;;;;5003835;28;20049;-66
2022/01/21 10:40:41;;;;;;;4.82;1.20;;;13.80;59.70;;;;;;4994951;28;20065;-66
2022/01/21 10:43:15;;;;;;;8.65;1.80;;;14.10;57.20;;;;;;5008905;28;20491;-66
2022/01/21 10:45:57;;;;;;;5.95;1.60;;;14.20;56.90;;;;;;5002144;28;20045;-66
2022/01/21 10:48:23;;;;;;;4.70;1.33;;;14.40;57.30;;;;;;5007002;28;20161;-66
2022/01/21 10:51:15;;;;;;;5.63;1.50;;;14.60;55.60;;;;;;5006475;28;20116;-64
2022/01/21 10:53:43;;;;;;;4.75;1.40;;;14.50;55.30;;;;;;5010125;28;20084;-64
2022/01/21 10:56:11;;;;;;;4.28;1.58;;;14.10;54.40;;;;;;5004403;28;20026;-64
2022/01/21 10:58:42;;;;;;;5.85;1.50;;;13.60;54.50;;;;;;4995251;28;20466;-65
2022/01/21 11:01:13;;;;;;;4.07;1.70;;;13.70;57.00;;;;;;4995783;28;20555;-64
2022/01/21 11:04:10;;;;;;;5.82;1.40;;;14.20;57.80;;;;;;5007604;28;20021;-65
2022/01/21 11:06:48;;;;;;;4.57;1.50;;;14.30;57.20;;;;;;5007168;28;20076;-65
2022/01/21 11:09:25;;;;;;;6.20;1.90;;;14.60;56.40;;;;;;5009229;28;20549;-65
2022/01/21 11:12:11;;;;;;;6.30;1.60;;;15.00;57.70;;;;;;5004676;28;20496;-65
2022/01/21 11:14:54;;;;;;;3.33;1.10;;;15.20;56.50;;;;;;5006184;28;20500;-65
2022/01/21 11:17:20;;;;;;;5.03;1.63;;;15.50;53.90;;;;;;5005943;28;20034;-65
2022/01/21 11:20:15;;;;;;;6.07;1.70;;;15.80;54.80;;;;;;5006082;28;20119;-65
2022/01/21 11:22:54;;;;;;;5.85;1.48;;;15.70;52.50;;;;;;5006154;28;20030;-65
2022/01/21 11:25:54;;;;;;;6.53;1.60;;;15.40;52.10;;;;;;4994814;28;20033;-65
2022/01/21 11:28:21;;;;;;;5.22;1.65;;;15.40;53.30;;;;;;4999029;28;20116;-65
2022/01/21 11:30:47;;;;;;;5.30;1.48;;;15.50;52.50;;;;;;5006673;28;20011;-69
2022/01/21 11:33:13;;;;;;;7.25;1.70;;;15.10;52.10;;;;;;5005551;28;20512;-64
2022/01/21 11:35:39;;;;;;;4.80;1.70;;;15.40;54.00;;;;;;5005572;28;20081;-72
2022/01/21 11:38:07;;;;;;;5.22;1.42;;;15.40;50.80;;;;;;5005754;28;20108;-72
2022/01/21 11:40:33;;;;;;;3.42;1.15;;;15.40;51.50;;;;;;5009289;28;20548;-72
2022/01/21 11:43:00;;;;;;;5.65;1.27;;;15.60;52.00;;;;;;4995046;28;20481;-72
2022/01/21 11:50:38;;;;;;;5.60;1.45;;;16.20;50.90;;;;;;5006547;28;20472;-72
2022/01/21 11:53:07;;;;;;;6.13;1.30;;;16.60;49.60;;;;;;5005125;28;20038;-69
2022/01/21 11:55:36;;;;;;;3.90;1.25;;;16.70;50.10;;;;;;5006718;28;20105;-70
2022/01/21 11:58:18;;;;;;;3.38;1.27;;;16.80;49.10;;;;;;5008713;28;20049;-69
2022/01/21 12:00:47;;;;;;;5.95;1.45;;;16.90;49.50;;;;;;5012265;28;20053;-68
2022/01/21 12:03:14;;;;;;;3.90;1.25;;;17.10;48.80;;;;;;5009327;28;20508;-68
2022/01/21 12:05:39;;;;;;;5.32;1.45;;;17.00;48.00;;;;;;5004768;28;20069;-68
2022/01/21 12:08:05;;;;;;;4.28;1.73;;;16.80;47.50;;;;;;5004914;28;20080;-66
2022/01/21 12:10:42;;;;;;;3.05;1.33;;;16.00;47.20;;;;;;5010495;28;20026;-67
2022/01/21 12:13:16;;;;;;;5.30;1.30;;;15.30;48.10;;;;;;5009670;28;20739;-74
2022/01/21 12:18:41;;;;;;;7.57;1.30;;;14.00;49.20;;;;;;4998438;28;20065;-68
2022/01/21 12:21:30;;;;;;;5.25;1.15;;;13.50;50.50;;;;;;5008959;28;20038;-68
2022/01/21 12:23:56;;;;;;;6.45;1.50;;;13.00;51.80;;;;;;5007599;28;20034;-69
2022/01/21 12:26:29;;;;;;;7.50;1.50;;;12.70;52.90;;;;;;5002093;28;20037;-68
2022/01/21 12:28:57;;;;;;;4.72;1.45;;;12.30;53.00;;;;;;5006829;28;20088;-68
2022/01/21 12:31:43;;;;;;;3.60;1.38;;;12.10;53.70;;;;;;4997493;28;20030;-70
2022/01/21 12:34:12;;;;;;;5.13;1.35;;;11.80;54.70;;;;;;4998199;28;20038;-66
2022/01/21 12:37:04;;;;;;;5.72;1.48;;;11.60;54.90;;;;;;5012028;28;20512;-67
2022/01/21 12:39:44;;;;;;;5.10;1.30;;;11.50;57.00;;;;;;5000376;28;20046;-68
2022/01/21 12:42:25;;;;;;;4.82;1.40;;;11.30;56.00;;;;;;5008344;28;20024;-68
2022/01/21 12:45:03;;;;;;;4.78;1.50;;;11.20;56.60;;;;;;5007400;28;20038;-69
2022/01/21 12:47:45;;;;;;;5.93;1.25;;;11.10;58.00;;;;;;5008188;28;20026;-67
2022/01/21 12:50:44;;;;;;;4.60;0.98;;;11.00;57.10;;;;;;5008088;28;20030;-66
2022/01/21 12:55:55;;;;;;;3.35;1.50;;;11.00;57.10;;;;;;5000208;28;20034;-67
2022/01/21 12:58:32;;;;;;;3.58;0.93;;;10.90;56.60;;;;;;4995980;28;20699;-71
2022/01/21 13:01:04;;;;;;;3.85;1.00;;;10.90;57.10;;;;;;4994966;28;20109;-70
2022/01/21 13:03:47;;;;;;;3.55;1.05;;;10.90;57.10;;;;;;5005557;28;20473;-70
2022/01/21 13:06:21;;;;;;;4.68;1.20;;;11.00;57.70;;;;;;5004001;28;20030;-70
2022/01/21 13:08:50;;;;;;;2.53;1.10;;;11.10;57.70;;;;;;5017315;28;20439;-69
2022/01/21 13:11:21;;;;;;;4.68;1.00;;;11.20;58.00;;;;;;5011448;28;20022;-68
2022/01/21 13:16:24;;;;;;;3.88;1.00;;;11.30;57.70;;;;;;4996138;28;20109;-69
2022/01/21 13:18:50;;;;;;;6.05;1.38;;;11.30;57.90;;;;;;5010342;28;20069;-68
2022/01/21 13:21:15;;;;;;;6.38;0.95;;;11.20;57.80;;;;;;5007559;28;20065;-70
2022/01/21 13:23:50;;;;;;;4.78;1.33;;;11.20;57.80;;;;;;5011142;28;20547;-72
2022/01/21 13:26:18;;;;;;;4.22;1.15;;;11.10;57.90;;;;;;5001473;28;20081;-70
2022/01/21 13:28:52;;;;;;;4.47;1.15;;;11.00;58.10;;;;;;5009206;28;20034;-70
2022/01/21 13:31:18;;;;;;;3.63;1.00;;;10.80;58.10;;;;;;5010996;28;20030;-67
2022/01/21 13:33:44;;;;;;;4.07;1.00;;;10.70;58.60;;;;;;5003001;28;20029;-69
2022/01/21 13:36:10;;;;;;;6.45;1.23;;;10.70;58.80;;;;;;5006840;28;20512;-68
2022/01/21 13:38:37;;;;;;;4.45;1.10;;;10.70;59.30;;;;;;5004503;28;20051;-69
2022/01/21 13:41:08;;;;;;;6.38;1.10;;;10.70;59.20;;;;;;5010322;28;20539;-68
2022/01/21 13:43:34;;;;;;;4.45;1.27;;;10.60;58.60;;;;;;5010207;28;20076;-74
2022/01/21 13:46:10;;;;;;;2.70;0.88;;;10.60;58.60;;;;;;4997381;28;20058;-72
2022/01/21 13:48:37;;;;;;;4.45;0.88;;;10.60;59.00;;;;;;5008231;28;20109;-73
2022/01/21 13:51:06;;;;;;;3.90;0.73;;;10.50;58.50;;;;;;5005758;28;20072;-67
2022/01/21 13:53:31;;;;;;;3.85;0.82;;;10.60;58.90;;;;;;5011011;28;20033;-68
2022/01/21 13:56:03;;;;;;;4.10;0.93;;;10.70;58.20;;;;;;5006463;28;20515;-66
2022/01/21 13:58:31;;;;;;;3.78;0.88;;;10.70;58.40;;;;;;5007508;28;20042;-67
2022/01/21 14:01:08;;;;;;;3.13;0.90;;;10.80;58.70;;;;;;5010661;28;20034;-68
2022/01/21 14:03:35;;;;;;;3.05;0.70;;;10.80;59.30;;;;;;5007489;28;20063;-67